Time;durP1;ratioP1;P1;durP2;ratioP2;P2;SDS_P1;SDS_P2;PMS_P1;PMS_P2;Temp;Humidity;BMP_temperature;BMP_pressure;BME280_temperature;BME280_humidity;BME280_pressure;Samples;Min_cycle;Max_cycle;Signal;HPM_P1;HPM_P2
2023/12/23 00:01:20;;;;;;;0.00;0.00;;;3.70;1.00;;;;;;5033265;28;20188;-87
2023/12/23 00:03:45;;;;;;;1.45;0.70;;;3.80;1.00;;;;;;5050922;28;20079;-87
2023/12/23 00:06:11;;;;;;;0.98;0.65;;;3.90;1.00;;;;;;5024347;28;20091;-86
2023/12/23 00:08:37;;;;;;;0.25;0.25;;;4.00;99.90;;;;;;5045474;28;20424;-87
2023/12/23 00:11:03;;;;;;;0.00;0.00;;;4.00;99.90;;;;;;5045360;28;20132;-87
2023/12/23 00:13:29;;;;;;;0.00;0.00;;;4.10;37.00;;;;;;5052472;28;20044;-87
2023/12/23 00:15:54;;;;;;;2.00;1.20;;;4.10;10.20;;;;;;5045034;28;20033;-87
2023/12/23 00:18:20;;;;;;;0.00;0.00;;;4.10;1.00;;;;;;5062892;28;20040;-89
2023/12/23 00:20:46;;;;;;;1.80;1.70;;;3.90;1.00;;;;;;5061985;28;20080;-87
2023/12/23 00:23:12;;;;;;;2.65;2.45;;;3.90;1.00;;;;;;5061868;28;20072;-88
2023/12/23 00:25:40;;;;;;;0.10;0.10;;;3.80;1.00;;;;;;5026752;28;20055;-87
2023/12/23 00:28:06;;;;;;;0.00;0.00;;;3.70;98.90;;;;;;5061711;28;20162;-87
2023/12/23 00:30:32;;;;;;;0.30;0.30;;;3.70;99.90;;;;;;5027513;28;20036;-87
2023/12/23 00:32:58;;;;;;;0.85;0.65;;;3.70;99.90;;;;;;5043033;28;20447;-87
2023/12/23 00:35:23;;;;;;;1.35;0.80;;;3.70;99.90;;;;;;5043283;28;20100;-87
2023/12/23 00:37:49;;;;;;;1.55;0.75;;;3.80;99.90;;;;;;5061493;28;20041;-87
2023/12/23 00:40:15;;;;;;;0.10;0.10;;;4.50;99.90;;;;;;5044002;28;20052;-87
2023/12/23 00:42:40;;;;;;;0.00;0.00;;;3.80;99.90;;;;;;5062404;28;20048;-87
2023/12/23 00:45:06;;;;;;;7.28;0.85;;;3.80;99.90;;;;;;5052694;28;20067;-87
2023/12/23 00:47:32;;;;;;;0.10;0.10;;;3.80;99.90;;;;;;5042398;28;20143;-86
2023/12/23 00:49:58;;;;;;;6.63;2.40;;;3.90;99.90;;;;;;5061570;28;20069;-87
2023/12/23 00:52:24;;;;;;;0.30;0.30;;;3.90;99.90;;;;;;5061592;28;20045;-87
2023/12/23 00:54:49;;;;;;;3.40;1.10;;;3.90;99.90;;;;;;5043845;28;20548;-87
2023/12/23 00:57:15;;;;;;;0.85;0.85;;;3.90;99.90;;;;;;5061642;28;20033;-87
2023/12/23 00:59:40;;;;;;;0.35;0.20;;;4.00;99.90;;;;;;5043857;28;20045;-87
2023/12/23 01:02:06;;;;;;;0.00;0.00;;;4.00;99.90;;;;;;5061563;28;20041;-87
2023/12/23 01:04:32;;;;;;;5.47;3.30;;;4.00;99.90;;;;;;5042501;28;20100;-87
2023/12/23 01:06:57;;;;;;;1.55;1.10;;;4.10;99.90;;;;;;5061049;28;20506;-87
2023/12/23 01:09:23;;;;;;;0.05;0.05;;;4.20;99.90;;;;;;5047640;28;20054;-87
2023/12/23 01:11:49;;;;;;;0.00;0.00;;;4.20;99.90;;;;;;5069578;28;20073;-87
2023/12/23 01:14:15;;;;;;;2.08;1.10;;;4.20;17.50;;;;;;5047253;28;20508;-87
2023/12/23 01:16:41;;;;;;;0.30;0.25;;;4.20;1.00;;;;;;5071062;28;20037;-87
2023/12/23 01:19:06;;;;;;;0.20;0.20;;;4.30;1.00;;;;;;5042935;28;20032;-88
2023/12/23 01:21:32;;;;;;;0.20;0.20;;;4.30;1.00;;;;;;5060544;28;20406;-87
2023/12/23 01:23:57;;;;;;;3.15;0.45;;;4.30;1.00;;;;;;5027684;28;20120;-87
2023/12/23 01:26:23;;;;;;;0.00;0.00;;;4.40;1.00;;;;;;5044168;28;20053;-87
2023/12/23 01:28:48;;;;;;;0.75;0.75;;;4.40;99.90;;;;;;5043100;28;20049;-86
2023/12/23 01:31:17;;;;;;;0.40;0.40;;;4.50;99.90;;;;;;5059969;28;20068;-87
2023/12/23 01:33:43;;;;;;;4.47;1.00;;;4.50;99.90;;;;;;5066735;28;20043;-86
2023/12/23 01:36:08;;;;;;;0.00;0.00;;;4.60;99.90;;;;;;5068584;28;20045;-86
2023/12/23 01:38:34;;;;;;;4.57;1.27;;;4.60;99.90;;;;;;5066079;28;20071;-87
2023/12/23 01:41:00;;;;;;;0.52;0.52;;;4.60;99.90;;;;;;5060959;28;20041;-87
2023/12/23 01:43:25;;;;;;;0.10;0.10;;;4.70;67.90;;;;;;5040692;28;20064;-87
2023/12/23 01:45:59;;;;;;;0.30;0.30;;;4.70;72.40;;;;;;5040821;28;20045;-86
2023/12/23 01:48:26;;;;;;;0.63;0.60;;;4.80;92.90;;;;;;5059442;28;20040;-87
2023/12/23 01:50:53;;;;;;;0.00;0.00;;;4.80;22.50;;;;;;5059544;28;20041;-87
2023/12/23 01:53:20;;;;;;;0.00;0.00;;;5.30;1.00;;;;;;5041958;28;20041;-87
2023/12/23 01:55:46;;;;;;;0.22;0.22;;;5.00;1.00;;;;;;5023483;28;20041;-86
2023/12/23 01:58:12;;;;;;;0.00;0.00;;;5.00;99.90;;;;;;5037815;28;20094;-86
2023/12/23 02:00:37;;;;;;;0.00;0.00;;;5.00;1.00;;;;;;5058934;28;20044;-87
2023/12/23 02:03:03;;;;;;;1.13;1.00;;;5.00;99.90;;;;;;5041497;28;20037;-87
2023/12/23 02:05:29;;;;;;;0.00;0.00;;;5.00;1.00;;;;;;5059371;28;20040;-87
2023/12/23 02:07:55;;;;;;;0.00;0.00;;;5.00;1.00;;;;;;5041396;28;20045;-87
2023/12/23 02:10:21;;;;;;;0.00;0.00;;;5.10;99.90;;;;;;5060863;28;20048;-87
2023/12/23 02:13:04;;;;;;;0.00;0.00;;;5.00;99.90;;;;;;5060488;28;20068;-87
2023/12/23 02:15:33;;;;;;;0.10;0.10;;;5.00;1.00;;;;;;5059348;28;20044;-87
2023/12/23 02:18:01;;;;;;;1.10;0.63;;;5.00;1.00;;;;;;5059668;28;20041;-86
2023/12/23 02:20:27;;;;;;;0.00;0.00;;;5.10;1.00;;;;;;5060604;28;20044;-87
2023/12/23 02:22:53;;;;;;;0.00;0.00;;;5.10;1.00;;;;;;5061877;28;20048;-87
2023/12/23 02:25:20;;;;;;;0.10;0.10;;;5.10;1.00;;;;;;5060480;28;20040;-87
2023/12/23 02:28:02;;;;;;;9.45;0.70;;;5.10;1.00;;;;;;5060305;28;20102;-87
2023/12/23 02:30:29;;;;;;;0.00;0.00;;;5.20;1.00;;;;;;5043062;28;20368;-87
2023/12/23 02:32:54;;;;;;;22.48;2.67;;;5.10;1.00;;;;;;5042107;28;20441;-86
2023/12/23 02:35:24;;;;;;;0.00;0.00;;;5.10;42.80;;;;;;5046412;28;20076;-87
2023/12/23 02:37:50;;;;;;;0.00;0.00;;;5.10;74.90;;;;;;5031685;28;20045;-87
2023/12/23 02:40:16;;;;;;;0.00;0.00;;;5.00;99.90;;;;;;5042315;28;20116;-87
2023/12/23 02:42:41;;;;;;;0.10;0.10;;;5.00;99.90;;;;;;5061841;28;20069;-87
2023/12/23 02:45:08;;;;;;;0.10;0.10;;;5.00;99.90;;;;;;5040535;28;20045;-87
2023/12/23 02:47:33;;;;;;;0.10;0.10;;;4.90;99.90;;;;;;5065586;28;20075;-87
2023/12/23 02:49:59;;;;;;;0.80;0.75;;;5.00;99.90;;;;;;5067915;28;20467;-87
2023/12/23 02:52:24;;;;;;;0.00;0.00;;;4.90;99.90;;;;;;5061886;28;20076;-87
2023/12/23 02:54:50;;;;;;;0.20;0.20;;;5.00;99.90;;;;;;5027673;28;20041;-88
2023/12/23 02:57:15;;;;;;;0.00;0.00;;;5.00;1.00;;;;;;5061171;28;20040;-88
2023/12/23 02:59:41;;;;;;;0.00;0.00;;;5.00;1.00;;;;;;5061668;28;20047;-88
2023/12/23 03:02:07;;;;;;;1.52;0.80;;;5.00;1.00;;;;;;5043620;28;20045;-87
2023/12/23 03:04:32;;;;;;;0.03;0.03;;;4.90;7.50;;;;;;5061525;28;20201;-87
2023/12/23 03:06:58;;;;;;;0.00;0.00;;;4.90;99.90;;;;;;5043582;28;20045;-87
2023/12/23 03:09:24;;;;;;;0.00;0.00;;;5.10;99.90;;;;;;5042665;28;20371;-87
2023/12/23 03:11:49;;;;;;;0.10;0.10;;;4.90;99.90;;;;;;5059325;28;20571;-88
2023/12/23 03:14:15;;;;;;;0.00;0.00;;;4.80;99.90;;;;;;5058723;28;20047;-88
2023/12/23 03:16:41;;;;;;;0.00;0.00;;;4.70;99.90;;;;;;5058650;28;20041;-88
2023/12/23 03:19:08;;;;;;;0.00;0.00;;;4.70;99.90;;;;;;5040822;28;20037;-88
2023/12/23 03:21:34;;;;;;;0.00;0.00;;;4.70;1.00;;;;;;5040168;28;20045;-87
2023/12/23 03:24:00;;;;;;;0.75;0.65;;;4.70;1.00;;;;;;5040897;28;20099;-87
2023/12/23 03:26:28;;;;;;;0.00;0.00;;;4.70;1.00;;;;;;5061231;28;20048;-87
2023/12/23 03:28:53;;;;;;;2.70;0.95;;;4.70;1.00;;;;;;5084661;28;20084;-87
2023/12/23 03:31:19;;;;;;;0.22;0.22;;;4.60;35.30;;;;;;5057674;28;20152;-87
2023/12/23 03:33:45;;;;;;;0.10;0.10;;;4.70;46.70;;;;;;5045769;28;20053;-87
2023/12/23 03:36:11;;;;;;;0.10;0.10;;;4.70;75.00;;;;;;5044808;28;20056;-87
2023/12/23 03:38:36;;;;;;;1.52;1.00;;;4.70;94.20;;;;;;5044743;28;20436;-87
2023/12/23 03:41:02;;;;;;;0.25;0.08;;;4.70;99.90;;;;;;5045129;28;20458;-87
2023/12/23 03:43:28;;;;;;;0.00;0.00;;;4.70;99.90;;;;;;5045191;28;20036;-87
2023/12/23 03:45:53;;;;;;;0.00;0.00;;;4.70;99.90;;;;;;5045212;28;20068;-87
2023/12/23 03:48:19;;;;;;;1.25;0.38;;;4.70;99.90;;;;;;5045660;28;20057;-87
2023/12/23 03:50:44;;;;;;;0.40;0.30;;;4.70;99.90;;;;;;5063080;28;20041;-87
2023/12/23 03:53:10;;;;;;;0.45;0.45;;;4.70;99.90;;;;;;5063169;28;20055;-87
2023/12/23 03:55:38;;;;;;;0.00;0.00;;;4.70;99.90;;;;;;5063016;28;20095;-86
2023/12/23 03:58:03;;;;;;;0.00;0.00;;;4.70;99.90;;;;;;5063112;28;20133;-86
2023/12/23 04:00:30;;;;;;;2.55;1.40;;;4.70;99.90;;;;;;5044656;28;20092;-86
2023/12/23 04:02:57;;;;;;;0.00;0.00;;;4.70;99.90;;;;;;5064159;28;20048;-86
2023/12/23 04:05:23;;;;;;;0.00;0.00;;;4.60;99.90;;;;;;5065607;28;20049;-87
2023/12/23 04:07:49;;;;;;;0.00;0.00;;;4.60;99.90;;;;;;5051756;28;20141;-87
2023/12/23 04:10:15;;;;;;;0.55;0.55;;;4.60;99.90;;;;;;5063844;28;20099;-87
2023/12/23 04:12:41;;;;;;;0.00;0.00;;;4.60;99.90;;;;;;5046212;28;20398;-86
2023/12/23 04:15:07;;;;;;;0.00;0.00;;;4.60;99.90;;;;;;5046382;28;20056;-86
2023/12/23 04:17:33;;;;;;;0.00;0.00;;;4.60;99.90;;;;;;5046735;28;20048;-86
2023/12/23 04:19:59;;;;;;;0.00;0.00;;;4.60;99.90;;;;;;5046286;28;20075;-86
2023/12/23 04:22:24;;;;;;;5.95;0.45;;;4.60;1.00;;;;;;5045326;28;20041;-86
2023/12/23 04:24:50;;;;;;;0.10;0.10;;;4.60;1.00;;;;;;5068418;28;20445;-87
2023/12/23 04:27:15;;;;;;;0.00;0.00;;;4.70;1.00;;;;;;5064218;28;20041;-86
2023/12/23 04:29:41;;;;;;;0.00;0.00;;;4.60;1.00;;;;;;5064529;28;20494;-86
2023/12/23 04:32:07;;;;;;;0.38;0.38;;;4.60;1.00;;;;;;5046789;28;20068;-86
2023/12/23 04:34:32;;;;;;;0.00;0.00;;;4.70;1.00;;;;;;5029223;28;20048;-86
2023/12/23 04:36:58;;;;;;;0.00;0.00;;;4.60;1.00;;;;;;5064382;28;20068;-86
2023/12/23 04:39:23;;;;;;;0.80;0.40;;;4.60;1.00;;;;;;5026406;28;20479;-86
2023/12/23 04:41:50;;;;;;;0.45;0.28;;;4.60;1.00;;;;;;5026484;28;20073;-86
2023/12/23 04:44:16;;;;;;;0.00;0.00;;;4.60;1.00;;;;;;5065142;28;20037;-86
2023/12/23 04:46:42;;;;;;;0.00;0.00;;;4.60;1.00;;;;;;5071229;28;20070;-86
2023/12/23 04:49:08;;;;;;;1.80;0.90;;;4.60;6.80;;;;;;5056708;28;20045;-86
2023/12/23 04:51:34;;;;;;;0.00;0.00;;;4.60;2.30;;;;;;5052126;28;20037;-86
2023/12/23 04:54:00;;;;;;;0.00;0.00;;;4.60;1.00;;;;;;5059775;28;20049;-87
2023/12/23 04:56:25;;;;;;;0.30;0.30;;;4.60;1.00;;;;;;5041656;28;20037;-87
2023/12/23 04:58:51;;;;;;;0.00;0.00;;;4.60;1.00;;;;;;5056669;28;20045;-86
2023/12/23 05:01:16;;;;;;;0.00;0.00;;;4.60;1.00;;;;;;5021213;28;20044;-86
2023/12/23 05:03:42;;;;;;;0.00;0.00;;;4.60;1.00;;;;;;5037709;28;20364;-86
2023/12/23 05:06:07;;;;;;;0.00;0.00;;;4.60;1.00;;;;;;5057724;28;20047;-87
2023/12/23 05:08:33;;;;;;;0.00;0.00;;;4.60;1.00;;;;;;5058888;28;20049;-87
2023/12/23 05:10:59;;;;;;;0.00;0.00;;;4.60;1.00;;;;;;5059111;28;20124;-87
2023/12/23 05:13:25;;;;;;;0.00;0.00;;;4.60;1.00;;;;;;5041123;28;20491;-86
2023/12/23 05:15:50;;;;;;;0.00;0.00;;;4.60;1.00;;;;;;5040950;28;20045;-86
2023/12/23 05:18:16;;;;;;;0.00;0.00;;;4.60;1.00;;;;;;5041338;28;20127;-89
2023/12/23 05:20:42;;;;;;;0.00;0.00;;;4.60;1.00;;;;;;5041378;28;20041;-87
2023/12/23 05:23:08;;;;;;;0.00;0.00;;;4.60;1.00;;;;;;5041334;28;20048;-87
2023/12/23 05:25:33;;;;;;;0.20;0.17;;;4.60;1.00;;;;;;5059602;28;20044;-87
2023/12/23 05:27:59;;;;;;;0.00;0.00;;;4.70;1.00;;;;;;5042274;28;20445;-87
2023/12/23 05:30:25;;;;;;;0.00;0.00;;;4.70;1.00;;;;;;5041520;28;20040;-87
2023/12/23 05:32:50;;;;;;;0.00;0.00;;;4.70;1.00;;;;;;5041652;28;20538;-86
2023/12/23 05:35:16;;;;;;;0.22;0.22;;;5.60;1.00;;;;;;5059022;28;20045;-87
2023/12/23 05:37:42;;;;;;;0.00;0.00;;;4.70;28.00;;;;;;5059262;28;20041;-87
2023/12/23 05:40:09;;;;;;;0.00;0.00;;;4.70;99.90;;;;;;5041115;28;20048;-87
2023/12/23 05:42:35;;;;;;;0.75;0.75;;;4.70;99.90;;;;;;5044677;28;20053;-87
2023/12/23 05:45:00;;;;;;;0.00;0.00;;;4.70;99.90;;;;;;5080135;28;20033;-87
2023/12/23 05:47:27;;;;;;;0.10;0.10;;;4.70;99.90;;;;;;5072732;28;20041;-86
2023/12/23 05:49:52;;;;;;;0.00;0.00;;;4.70;99.90;;;;;;5041298;28;20045;-86
2023/12/23 05:52:18;;;;;;;2.13;0.52;;;4.70;99.90;;;;;;5058624;28;20068;-86
2023/12/23 05:54:43;;;;;;;0.00;0.00;;;4.70;99.90;;;;;;5058253;28;20502;-87
2023/12/23 05:57:09;;;;;;;0.00;0.00;;;4.70;99.90;;;;;;5058770;28;20162;-87
2023/12/23 05:59:35;;;;;;;0.00;0.00;;;4.70;99.90;;;;;;5040677;28;20044;-86
2023/12/23 06:02:00;;;;;;;0.80;0.65;;;4.60;1.00;;;;;;5059205;28;20040;-87
2023/12/23 06:04:26;;;;;;;0.00;0.00;;;4.60;1.00;;;;;;5030919;28;20440;-86
2023/12/23 06:06:51;;;;;;;0.00;0.00;;;4.60;1.00;;;;;;5061324;28;20049;-87
2023/12/23 06:09:17;;;;;;;0.00;0.00;;;4.60;1.00;;;;;;5049703;28;20487;-87
2023/12/23 06:11:42;;;;;;;0.00;0.00;;;4.60;1.00;;;;;;5025414;28;20105;-86
2023/12/23 06:14:08;;;;;;;0.00;0.00;;;4.60;7.60;;;;;;5060421;28;20094;-87
2023/12/23 06:16:38;;;;;;;0.70;0.70;;;4.70;38.70;;;;;;5061407;28;20049;-86
2023/12/23 06:19:04;;;;;;;1.02;0.45;;;4.50;88.90;;;;;;5042608;28;20044;-87
2023/12/23 06:21:30;;;;;;;0.00;0.00;;;4.50;99.90;;;;;;5060908;28;20044;-86
2023/12/23 06:23:55;;;;;;;0.00;0.00;;;4.50;99.90;;;;;;5056053;28;20055;-86
2023/12/23 06:26:21;;;;;;;0.00;0.00;;;4.50;99.90;;;;;;5065890;28;20070;-86
2023/12/23 06:28:47;;;;;;;0.00;0.00;;;4.50;99.90;;;;;;5057656;28;20091;-86
2023/12/23 06:31:12;;;;;;;6.93;1.00;;;4.50;99.90;;;;;;5060612;28;20041;-86
2023/12/23 06:33:38;;;;;;;0.00;0.00;;;5.00;99.90;;;;;;5042760;28;20056;-87
2023/12/23 06:36:04;;;;;;;0.00;0.00;;;4.50;99.90;;;;;;5058757;28;20044;-88
2023/12/23 06:38:29;;;;;;;0.00;0.00;;;4.50;99.90;;;;;;5042435;28;20045;-87
2023/12/23 06:40:55;;;;;;;0.00;0.00;;;4.50;99.90;;;;;;5039793;28;20525;-87
2023/12/23 06:43:21;;;;;;;0.00;0.00;;;4.50;99.90;;;;;;5040084;28;20075;-87
2023/12/23 06:45:46;;;;;;;0.20;0.20;;;4.50;99.90;;;;;;5039190;28;20041;-87
2023/12/23 06:48:12;;;;;;;0.00;0.00;;;4.50;99.90;;;;;;5058510;28;20422;-87
2023/12/23 06:50:37;;;;;;;0.00;0.00;;;4.50;99.90;;;;;;5057695;28;20048;-87
2023/12/23 06:53:03;;;;;;;0.00;0.00;;;4.50;99.90;;;;;;5040536;28;20138;-87
2023/12/23 06:55:29;;;;;;;0.32;0.32;;;4.40;99.90;;;;;;5040569;28;20482;-87
2023/12/23 06:57:57;;;;;;;0.00;0.00;;;4.40;99.90;;;;;;5040249;28;20479;-87
2023/12/23 07:00:22;;;;;;;0.00;0.00;;;4.40;99.90;;;;;;5057293;28;20121;-87
2023/12/23 07:02:49;;;;;;;0.00;0.00;;;4.30;99.90;;;;;;5056676;28;20037;-87
2023/12/23 07:05:14;;;;;;;0.00;0.00;;;4.30;99.90;;;;;;5040239;28;20053;-87
2023/12/23 07:07:40;;;;;;;0.00;0.00;;;4.30;99.90;;;;;;5039955;28;20041;-87
2023/12/23 07:10:06;;;;;;;0.00;0.00;;;4.30;99.90;;;;;;5023435;28;20103;-87
2023/12/23 07:12:32;;;;;;;0.00;0.00;;;4.30;99.90;;;;;;5038909;28;20510;-87
2023/12/23 07:14:58;;;;;;;0.00;0.00;;;4.30;99.90;;;;;;5040044;28;20045;-87
2023/12/23 07:17:23;;;;;;;0.00;0.00;;;4.20;99.90;;;;;;5040641;28;20048;-87
2023/12/23 07:19:49;;;;;;;0.00;0.00;;;4.30;99.90;;;;;;5039441;28;20041;-86
2023/12/23 07:22:15;;;;;;;0.00;0.00;;;4.30;99.90;;;;;;5038647;28;20053;-87
2023/12/23 07:24:41;;;;;;;0.00;0.00;;;4.20;99.90;;;;;;5038246;28;20037;-87
2023/12/23 07:27:08;;;;;;;0.00;0.00;;;4.20;99.90;;;;;;5038137;28;20059;-87
2023/12/23 07:29:37;;;;;;;0.00;0.00;;;4.20;99.90;;;;;;5037117;28;20458;-87
2023/12/23 07:32:03;;;;;;;0.00;0.00;;;4.20;99.90;;;;;;5055441;28;20100;-87
2023/12/23 07:34:29;;;;;;;0.00;0.00;;;4.30;99.90;;;;;;5022014;28;20069;-87
2023/12/23 07:36:54;;;;;;;0.00;0.00;;;4.20;99.90;;;;;;5055042;28;20057;-87
2023/12/23 07:39:20;;;;;;;0.00;0.00;;;4.20;99.90;;;;;;5020066;28;20103;-87
2023/12/23 07:41:46;;;;;;;0.00;0.00;;;4.30;99.90;;;;;;5018244;28;20471;-86
2023/12/23 07:44:11;;;;;;;0.00;0.00;;;4.20;99.90;;;;;;5052397;28;20053;-86
2023/12/23 07:46:37;;;;;;;0.22;0.22;;;4.20;99.90;;;;;;5034243;28;20087;-87
2023/12/23 07:49:03;;;;;;;0.00;0.00;;;4.20;99.90;;;;;;5061849;28;20040;-87
2023/12/23 07:51:28;;;;;;;0.00;0.00;;;4.20;99.90;;;;;;5052486;28;20583;-86
2023/12/23 07:53:54;;;;;;;0.00;0.00;;;4.30;99.90;;;;;;5034757;28;20052;-86
2023/12/23 07:56:19;;;;;;;0.00;0.00;;;4.30;99.90;;;;;;5018242;28;20045;-86
2023/12/23 07:58:45;;;;;;;0.17;0.17;;;4.30;99.90;;;;;;5048542;28;20044;-86
2023/12/23 08:01:10;;;;;;;0.00;0.00;;;4.30;99.90;;;;;;5069181;28;20037;-86
2023/12/23 08:03:36;;;;;;;0.00;0.00;;;4.30;99.90;;;;;;5052327;28;20053;-86
2023/12/23 08:06:02;;;;;;;0.00;0.00;;;4.30;99.90;;;;;;5052024;28;20083;-86
2023/12/23 08:08:27;;;;;;;0.00;0.00;;;4.30;99.90;;;;;;5053089;28;20124;-87
2023/12/23 08:10:54;;;;;;;0.10;0.10;;;4.30;99.90;;;;;;5035116;28;20053;-86
2023/12/23 08:13:20;;;;;;;0.00;0.00;;;4.30;99.90;;;;;;5054413;28;20567;-87
2023/12/23 08:15:46;;;;;;;0.00;0.00;;;4.30;99.90;;;;;;5022389;28;20053;-87
2023/12/23 08:18:12;;;;;;;0.00;0.00;;;4.30;99.90;;;;;;5039108;28;20071;-88
2023/12/23 08:20:37;;;;;;;0.00;0.00;;;4.30;99.90;;;;;;5057699;28;20037;-87
2023/12/23 08:23:03;;;;;;;0.00;0.00;;;4.20;99.90;;;;;;5039284;28;20080;-87
2023/12/23 08:25:29;;;;;;;0.00;0.00;;;4.20;99.90;;;;;;5039592;28;20045;-87
2023/12/23 08:27:54;;;;;;;0.00;0.00;;;4.50;99.90;;;;;;5039395;28;20049;-86
2023/12/23 08:30:20;;;;;;;0.00;0.00;;;4.30;99.90;;;;;;5038506;28;20508;-86
2023/12/23 08:32:45;;;;;;;0.00;0.00;;;4.30;99.90;;;;;;5037773;28;20052;-86
2023/12/23 08:35:12;;;;;;;0.00;0.00;;;5.70;99.90;;;;;;5033724;28;20078;-86
2023/12/23 08:37:37;;;;;;;0.00;0.00;;;4.30;99.90;;;;;;5056670;28;20098;-87
2023/12/23 08:40:04;;;;;;;0.00;0.00;;;4.30;99.90;;;;;;5020966;28;20490;-87
2023/12/23 08:42:29;;;;;;;0.10;0.10;;;4.30;99.90;;;;;;5038357;28;20086;-87
2023/12/23 08:44:55;;;;;;;0.00;0.00;;;5.40;99.90;;;;;;4986615;28;20046;-87
2023/12/23 08:47:20;;;;;;;0.00;0.00;;;5.20;99.90;;;;;;5003018;28;20045;-87
2023/12/23 08:49:46;;;;;;;0.00;0.00;;;4.40;99.90;;;;;;5017419;28;20037;-87
2023/12/23 08:52:12;;;;;;;0.00;0.00;;;4.40;99.90;;;;;;4980612;28;20393;-87
2023/12/23 08:54:37;;;;;;;0.00;0.00;;;4.50;99.90;;;;;;5014154;28;20034;-87
2023/12/23 08:57:03;;;;;;;0.00;0.00;;;4.60;99.90;;;;;;5014383;28;20038;-87
2023/12/23 08:59:29;;;;;;;0.00;0.00;;;4.50;99.90;;;;;;5014141;28;20468;-86
2023/12/23 09:01:54;;;;;;;0.00;0.00;;;4.50;99.90;;;;;;5014265;28;20403;-87
2023/12/23 09:04:20;;;;;;;0.00;0.00;;;4.40;99.90;;;;;;5013757;28;20050;-87
2023/12/23 09:06:46;;;;;;;0.00;0.00;;;4.50;99.90;;;;;;4996338;28;20085;-87
2023/12/23 09:09:12;;;;;;;0.00;0.00;;;4.50;99.90;;;;;;4979865;28;20045;-88
2023/12/23 09:11:44;;;;;;;0.00;0.00;;;4.50;99.90;;;;;;5014219;28;20388;-87
2023/12/23 09:14:10;;;;;;;0.00;0.00;;;4.50;99.90;;;;;;4996270;28;20054;-87
2023/12/23 09:16:36;;;;;;;0.00;0.00;;;4.50;99.90;;;;;;4979946;28;20045;-87
2023/12/23 09:19:01;;;;;;;0.00;0.00;;;4.60;99.90;;;;;;4996547;28;20045;-87
2023/12/23 09:21:27;;;;;;;0.00;0.00;;;4.60;99.90;;;;;;4996101;28;20042;-87
2023/12/23 09:23:52;;;;;;;0.20;0.20;;;4.60;99.90;;;;;;4995638;28;20093;-87
2023/12/23 09:26:18;;;;;;;0.70;0.70;;;4.70;99.90;;;;;;4999314;28;20577;-87
2023/12/23 09:28:44;;;;;;;1.40;0.68;;;4.70;99.90;;;;;;4999041;28;20087;-87
2023/12/23 09:31:09;;;;;;;0.00;0.00;;;4.70;99.90;;;;;;5015396;28;20487;-87
2023/12/23 09:33:38;;;;;;;0.00;0.00;;;4.80;99.90;;;;;;4980455;28;20045;-87
2023/12/23 09:36:05;;;;;;;0.00;0.00;;;4.80;99.90;;;;;;5013315;28;20570;-87
2023/12/23 09:38:30;;;;;;;0.00;0.00;;;4.80;99.90;;;;;;4995626;28;20593;-86
2023/12/23 09:40:56;;;;;;;0.00;0.00;;;4.80;99.90;;;;;;4995667;28;20125;-86
2023/12/23 09:43:23;;;;;;;0.00;0.00;;;4.80;99.90;;;;;;4995632;28;20049;-86
2023/12/23 09:45:49;;;;;;;0.00;0.00;;;4.90;99.90;;;;;;5011948;28;20405;-86
2023/12/23 09:48:15;;;;;;;0.00;0.00;;;4.90;99.90;;;;;;5013801;28;20054;-87
2023/12/23 09:50:41;;;;;;;0.98;0.38;;;4.90;99.90;;;;;;5000870;28;20095;-87
2023/12/23 09:53:10;;;;;;;0.00;0.00;;;4.90;99.90;;;;;;5033425;28;20045;-87
2023/12/23 09:55:37;;;;;;;0.00;0.00;;;4.90;99.90;;;;;;5033534;28;20042;-87
2023/12/23 09:58:03;;;;;;;0.00;0.00;;;4.90;99.90;;;;;;5015471;28;20041;-87
2023/12/23 10:00:28;;;;;;;0.00;0.00;;;4.90;99.90;;;;;;5015685;28;20124;-87
2023/12/23 10:02:54;;;;;;;0.00;0.00;;;5.00;99.90;;;;;;4999224;28;20053;-87
2023/12/23 10:05:20;;;;;;;0.00;0.00;;;4.90;99.90;;;;;;5002779;28;20108;-87
2023/12/23 10:07:45;;;;;;;0.10;0.10;;;4.90;99.90;;;;;;5013444;28;20045;-87
2023/12/23 10:10:12;;;;;;;0.08;0.08;;;4.90;99.90;;;;;;5013163;28;20483;-86
2023/12/23 10:12:37;;;;;;;0.00;0.00;;;4.90;99.90;;;;;;4995470;28;20100;-87
2023/12/23 10:15:04;;;;;;;0.00;0.00;;;4.90;99.90;;;;;;4995172;28;20042;-87
2023/12/23 10:17:32;;;;;;;0.00;0.00;;;4.90;99.90;;;;;;5013126;28;20076;-87
2023/12/23 10:19:57;;;;;;;0.00;0.00;;;4.80;99.90;;;;;;5012817;28;20057;-87
2023/12/23 10:22:26;;;;;;;0.00;0.00;;;4.80;99.90;;;;;;5002382;28;20050;-87
2023/12/23 10:24:51;;;;;;;0.00;0.00;;;4.80;99.90;;;;;;4994085;28;20041;-87
2023/12/23 10:27:18;;;;;;;0.00;0.00;;;4.90;99.90;;;;;;5012164;28;20072;-87
2023/12/23 10:29:47;;;;;;;0.00;0.00;;;4.90;99.90;;;;;;4994140;28;20418;-87
2023/12/23 10:32:17;;;;;;;0.93;0.70;;;4.90;99.90;;;;;;5010516;28;20475;-87
2023/12/23 10:34:44;;;;;;;0.10;0.10;;;5.00;99.90;;;;;;4966479;28;20046;-87
2023/12/23 10:37:13;;;;;;;0.00;0.00;;;5.00;99.90;;;;;;4958294;28;20042;-87
2023/12/23 10:39:49;;;;;;;0.00;0.00;;;5.00;99.90;;;;;;4976585;28;20048;-87
2023/12/23 10:42:20;;;;;;;0.00;0.00;;;6.10;99.90;;;;;;4993619;28;20045;-87
2023/12/23 10:44:46;;;;;;;0.00;0.00;;;5.10;99.90;;;;;;4978099;28;20125;-87
2023/12/23 10:47:15;;;;;;;0.00;0.00;;;5.10;99.90;;;;;;4978165;28;20255;-88
2023/12/23 10:49:43;;;;;;;0.00;0.00;;;5.10;99.90;;;;;;4969370;28;20046;-87
2023/12/23 10:52:10;;;;;;;0.22;0.22;;;5.20;99.90;;;;;;4975150;28;20271;-87
2023/12/23 10:54:37;;;;;;;0.00;0.00;;;5.20;99.90;;;;;;4990962;28;20085;-87
2023/12/23 10:57:04;;;;;;;0.00;0.00;;;5.30;99.90;;;;;;4980421;28;20133;-87
2023/12/23 10:59:29;;;;;;;0.00;0.00;;;5.30;99.90;;;;;;5007653;28;20039;-87
2023/12/23 11:01:57;;;;;;;0.00;0.00;;;5.40;99.90;;;;;;4960866;28;20104;-87
2023/12/23 11:04:25;;;;;;;0.00;0.00;;;6.10;99.90;;;;;;4991607;28;20520;-87
2023/12/23 11:06:52;;;;;;;0.20;0.15;;;5.40;99.90;;;;;;4992425;28;20045;-87
2023/12/23 11:09:20;;;;;;;0.00;0.00;;;5.30;99.90;;;;;;4975318;28;20050;-87
2023/12/23 11:11:47;;;;;;;0.00;0.00;;;5.30;99.90;;;;;;4976535;28;20058;-87
2023/12/23 11:14:14;;;;;;;0.00;0.00;;;5.40;99.90;;;;;;4997758;28;20088;-87
2023/12/23 11:16:42;;;;;;;3.30;0.52;;;5.40;99.90;;;;;;4995728;28;20536;-87
2023/12/23 11:19:08;;;;;;;0.00;0.00;;;5.40;99.90;;;;;;5014040;28;20098;-87
2023/12/23 11:21:36;;;;;;;0.15;0.10;;;5.40;99.90;;;;;;5013330;28;20504;-86
2023/12/23 11:24:04;;;;;;;0.00;0.00;;;5.40;99.90;;;;;;5012338;28;20045;-87
2023/12/23 11:26:42;;;;;;;0.00;0.00;;;5.30;99.90;;;;;;4995749;28;20038;-87
2023/12/23 11:29:09;;;;;;;0.03;0.03;;;5.30;99.90;;;;;;5013254;28;20404;-88
2023/12/23 11:31:35;;;;;;;0.00;0.00;;;5.40;99.90;;;;;;4995729;28;20500;-87
2023/12/23 11:34:01;;;;;;;0.00;0.00;;;5.40;99.90;;;;;;5013339;28;20074;-87
2023/12/23 11:36:27;;;;;;;0.00;0.00;;;5.40;99.90;;;;;;4996004;28;20128;-87
2023/12/23 11:38:53;;;;;;;0.10;0.10;;;5.40;99.90;;;;;;4995943;28;20042;-87
2023/12/23 11:41:20;;;;;;;0.00;0.00;;;5.40;99.90;;;;;;5013433;28;20116;-88
2023/12/23 11:43:47;;;;;;;0.00;0.00;;;5.40;99.90;;;;;;5013391;28;20120;-87
2023/12/23 11:46:14;;;;;;;0.00;0.00;;;5.40;99.90;;;;;;5003727;28;20400;-87
2023/12/23 11:48:40;;;;;;;0.10;0.10;;;5.40;99.90;;;;;;4998309;28;20065;-87
2023/12/23 11:51:08;;;;;;;0.50;0.38;;;5.40;99.90;;;;;;5000405;28;20037;-87
2023/12/23 11:53:34;;;;;;;0.00;0.00;;;5.40;99.90;;;;;;4999476;28;20038;-87
2023/12/23 11:56:01;;;;;;;0.00;0.00;;;5.40;99.90;;;;;;5030175;28;20055;-87
2023/12/23 11:58:27;;;;;;;0.00;0.00;;;5.40;99.90;;;;;;4998968;28;20034;-87
2023/12/23 12:00:54;;;;;;;0.00;0.00;;;5.40;99.90;;;;;;4999876;28;20056;-88
2023/12/23 12:03:20;;;;;;;0.00;0.00;;;5.50;99.90;;;;;;4998948;28;20052;-87
2023/12/23 12:05:46;;;;;;;0.00;0.00;;;5.50;99.90;;;;;;4999666;28;20038;-88
2023/12/23 12:08:11;;;;;;;0.35;0.35;;;5.50;99.90;;;;;;4999772;28;20095;-87
2023/12/23 12:10:37;;;;;;;0.00;0.00;;;5.50;99.90;;;;;;5017102;28;20138;-88
2023/12/23 12:13:03;;;;;;;0.00;0.00;;;5.60;99.90;;;;;;5015587;28;20065;-88
2023/12/23 12:15:28;;;;;;;0.00;0.00;;;5.60;99.90;;;;;;5010343;28;20046;-87
2023/12/23 12:17:54;;;;;;;0.00;0.00;;;5.60;99.90;;;;;;5019085;28;20046;-88
2023/12/23 12:20:22;;;;;;;0.00;0.00;;;5.70;99.90;;;;;;5018658;28;20095;-88
2023/12/23 12:22:48;;;;;;;0.00;0.00;;;5.70;99.90;;;;;;5018824;28;20049;-88
2023/12/23 12:25:15;;;;;;;0.00;0.00;;;5.80;99.90;;;;;;5008532;28;20045;-87
2023/12/23 12:27:41;;;;;;;0.00;0.00;;;5.80;99.90;;;;;;4999470;28;20499;-88
2023/12/23 12:30:11;;;;;;;13.07;0.32;;;5.80;99.90;;;;;;5000099;28;20127;-87
2023/12/23 12:32:50;;;;;;;0.00;0.00;;;5.80;99.90;;;;;;4997623;28;20137;-87
2023/12/23 12:35:16;;;;;;;0.10;0.10;;;5.80;99.90;;;;;;5014568;28;20529;-88
2023/12/23 12:37:43;;;;;;;0.00;0.00;;;5.90;99.90;;;;;;4997656;28;20117;-87
2023/12/23 12:40:14;;;;;;;0.00;0.00;;;5.90;99.90;;;;;;4997187;28;20625;-87
2023/12/23 12:42:46;;;;;;;0.20;0.20;;;6.00;99.90;;;;;;4997126;28;20152;-87
2023/12/23 12:45:14;;;;;;;0.00;0.00;;;6.00;99.90;;;;;;5024513;28;20049;-87
2023/12/23 12:47:39;;;;;;;0.00;0.00;;;6.00;99.90;;;;;;4999777;28;20100;-87
2023/12/23 12:50:06;;;;;;;0.00;0.00;;;6.10;99.90;;;;;;5025175;28;20037;-87
2023/12/23 12:52:33;;;;;;;0.00;0.00;;;6.10;99.90;;;;;;4996911;28;20042;-87
2023/12/23 12:54:59;;;;;;;0.00;0.00;;;6.20;99.90;;;;;;5004611;28;20053;-87